createdAt,value
2017-12-04T00:01:48.267Z,42.80
2017-12-04T00:04:15.786Z,40.93
2017-12-04T00:06:43.291Z,41.67
2017-12-04T00:09:10.802Z,41.80
2017-12-04T00:11:38.329Z,41.60
2017-12-04T00:14:05.858Z,39.53
2017-12-04T00:16:33.377Z,39.30
2017-12-04T00:19:00.902Z,43.80
2017-12-04T00:21:28.418Z,45.10
2017-12-04T00:23:55.937Z,45.23
2017-12-04T00:26:23.458Z,47.83
2017-12-04T00:28:50.984Z,46.80
2017-12-04T00:31:18.506Z,47.80
2017-12-04T00:33:46.029Z,46.53
2017-12-04T00:36:13.567Z,45.47
2017-12-04T00:38:41.087Z,44.93
2017-12-04T00:41:08.611Z,50.23
2017-12-04T00:43:36.129Z,48.77
2017-12-04T00:46:03.636Z,49.90
2017-12-04T00:48:31.158Z,49.73
2017-12-04T00:50:58.690Z,54.10
2017-12-04T00:53:26.208Z,50.80
2017-12-04T00:55:53.742Z,48.43
2017-12-04T00:58:21.296Z,55.63
2017-12-04T01:00:48.814Z,53.23
2017-12-04T01:03:16.343Z,56.37
2017-12-04T01:05:43.860Z,54.63
2017-12-04T01:08:11.368Z,56.80
2017-12-04T01:10:38.893Z,65.27
2017-12-04T01:13:06.426Z,55.33
2017-12-04T01:15:33.942Z,62.07
2017-12-04T01:18:01.482Z,54.77
2017-12-04T01:20:29.003Z,55.97
2017-12-04T01:22:56.524Z,51.07
2017-12-04T01:25:24.046Z,54.57
2017-12-04T01:27:51.579Z,56.27
2017-12-04T01:30:19.096Z,60.73
2017-12-04T01:32:46.617Z,57.60
2017-12-04T01:35:14.146Z,51.50
2017-12-04T01:37:41.668Z,54.23
2017-12-04T01:40:09.189Z,52.93
2017-12-04T01:42:36.708Z,51.03
2017-12-04T01:45:04.228Z,52.33
2017-12-04T01:47:31.750Z,52.60
2017-12-04T01:49:59.262Z,52.70
2017-12-04T01:52:26.774Z,53.63
2017-12-04T01:54:54.288Z,56.07
2017-12-04T01:57:21.804Z,52.43
2017-12-04T01:59:49.326Z,44.57
2017-12-04T02:02:16.852Z,50.53
2017-12-04T02:04:44.380Z,44.77
2017-12-04T02:07:11.915Z,44.47
2017-12-04T02:09:39.428Z,41.00
2017-12-04T02:12:06.942Z,40.00
2017-12-04T02:14:34.454Z,46.13
2017-12-04T02:17:01.978Z,39.93
2017-12-04T02:19:29.495Z,37.00
2017-12-04T02:21:57.009Z,39.53
2017-12-04T02:24:24.525Z,39.10
2017-12-04T02:26:52.061Z,38.63
2017-12-04T02:29:19.575Z,39.60
2017-12-04T02:31:47.116Z,37.20
2017-12-04T02:34:14.629Z,39.47
2017-12-04T02:36:42.142Z,40.87
2017-12-04T02:39:09.662Z,39.80
2017-12-04T02:41:37.171Z,41.40
2017-12-04T02:44:04.688Z,41.93
2017-12-04T02:46:32.256Z,41.23
2017-12-04T02:48:59.756Z,37.83
2017-12-04T02:51:27.289Z,40.23
2017-12-04T02:53:54.805Z,38.73
2017-12-04T02:56:22.338Z,38.83
2017-12-04T02:58:49.869Z,42.23
2017-12-04T03:01:17.390Z,35.20
2017-12-04T03:03:44.929Z,37.43
2017-12-04T03:06:12.445Z,37.57
2017-12-04T03:08:39.970Z,35.27
2017-12-04T03:11:07.494Z,33.67
2017-12-04T03:13:35.018Z,31.23
2017-12-04T03:16:02.546Z,36.80
2017-12-04T03:18:30.071Z,31.80
2017-12-04T03:20:57.597Z,33.97
2017-12-04T03:23:25.115Z,31.43
2017-12-04T03:25:52.636Z,30.83
2017-12-04T03:28:20.151Z,31.93
2017-12-04T03:30:47.667Z,30.93
2017-12-04T03:33:15.190Z,32.60
2017-12-04T03:35:42.708Z,31.27
2017-12-04T03:38:10.246Z,33.27
2017-12-04T03:40:37.762Z,35.13
2017-12-04T03:43:05.287Z,35.20
2017-12-04T03:45:32.805Z,34.07
2017-12-04T03:48:00.342Z,32.90
2017-12-04T03:50:27.874Z,31.70
2017-12-04T03:52:55.402Z,33.60
2017-12-04T03:55:22.918Z,36.13
2017-12-04T03:57:50.444Z,29.27
2017-12-04T04:00:17.968Z,32.03
2017-12-04T04:02:45.493Z,35.10
2017-12-04T04:05:13.020Z,34.40
2017-12-04T04:07:40.543Z,29.83
2017-12-04T04:10:08.066Z,32.20
2017-12-04T04:12:35.597Z,32.80
2017-12-04T04:15:03.112Z,29.77
2017-12-04T04:17:30.649Z,31.43
2017-12-04T04:19:58.167Z,29.87
2017-12-04T04:22:25.696Z,31.00
2017-12-04T04:24:53.208Z,32.33
2017-12-04T04:27:20.763Z,24.97
2017-12-04T04:29:48.293Z,27.97
2017-12-04T04:32:15.814Z,27.20
2017-12-04T04:34:43.337Z,27.87
2017-12-04T04:37:10.851Z,25.37
2017-12-04T04:39:38.365Z,26.30
2017-12-04T04:42:05.886Z,25.47
2017-12-04T04:44:33.410Z,21.97
2017-12-04T04:47:00.929Z,22.43
2017-12-04T04:49:28.450Z,20.30
2017-12-04T04:51:55.966Z,28.03
2017-12-04T04:54:23.506Z,20.17
2017-12-04T04:56:51.040Z,25.37
2017-12-04T04:59:18.557Z,25.67
2017-12-04T05:01:46.095Z,27.00
2017-12-04T05:04:13.618Z,22.97
2017-12-04T05:06:41.134Z,24.17
2017-12-04T05:09:08.658Z,18.40
2017-12-04T05:11:36.165Z,22.40
2017-12-04T05:14:03.682Z,22.73
2017-12-04T05:16:31.207Z,19.67
2017-12-04T05:18:58.715Z,22.87
2017-12-04T05:21:26.235Z,20.43
2017-12-04T05:23:53.772Z,18.00
2017-12-04T05:26:21.407Z,15.60
2017-12-04T05:28:48.915Z,23.10
2017-12-04T05:31:16.425Z,15.70
2017-12-04T05:33:43.941Z,24.90
2017-12-04T05:36:11.475Z,24.43
2017-12-04T05:38:38.984Z,23.93
2017-12-04T05:41:06.553Z,21.67
2017-12-04T05:43:34.073Z,19.97
2017-12-04T05:46:01.667Z,24.17
2017-12-04T05:48:29.186Z,19.60
2017-12-04T05:50:56.821Z,20.13
2017-12-04T05:53:24.332Z,21.27
2017-12-04T05:55:51.914Z,19.60
2017-12-04T05:58:19.438Z,16.27
2017-12-04T06:00:46.952Z,23.07
2017-12-04T06:03:14.465Z,18.57
2017-12-04T06:05:41.980Z,17.87
2017-12-04T06:08:09.530Z,19.40
2017-12-04T06:10:37.073Z,20.83
2017-12-04T06:13:04.589Z,21.23
2017-12-04T06:15:32.116Z,17.90
2017-12-04T06:17:59.629Z,18.17
2017-12-04T06:20:27.155Z,16.43
2017-12-04T06:22:54.668Z,20.40
2017-12-04T06:25:22.194Z,12.20
2017-12-04T06:27:49.791Z,21.83
2017-12-04T06:30:17.322Z,17.30
2017-12-04T06:32:44.837Z,19.93
2017-12-04T06:35:12.346Z,16.97
2017-12-04T06:37:39.881Z,25.17
2017-12-04T06:40:07.402Z,18.33
2017-12-04T06:42:34.923Z,15.77
2017-12-04T06:45:02.453Z,16.70
2017-12-04T06:47:29.968Z,16.07
2017-12-04T06:49:57.482Z,16.70
2017-12-04T06:52:24.985Z,14.23
2017-12-04T06:54:52.511Z,13.93
2017-12-04T06:57:20.020Z,19.10
2017-12-04T06:59:47.542Z,16.63
2017-12-04T07:02:15.060Z,20.67
2017-12-04T07:04:42.582Z,22.37
2017-12-04T07:07:10.092Z,19.80
2017-12-04T07:09:37.601Z,20.60
2017-12-04T07:12:05.122Z,19.43
2017-12-04T07:14:32.630Z,13.30
2017-12-04T07:17:00.146Z,12.07
2017-12-04T07:19:27.665Z,15.37
2017-12-04T07:21:55.194Z,12.03
2017-12-04T07:24:22.721Z,15.10
2017-12-04T07:26:50.238Z,11.97
2017-12-04T07:29:17.768Z,18.40
2017-12-04T07:31:45.287Z,15.27
2017-12-04T07:34:12.800Z,14.67
2017-12-04T07:36:40.314Z,15.27
2017-12-04T07:39:07.834Z,12.63
2017-12-04T07:41:35.351Z,15.20
2017-12-04T07:44:02.863Z,15.47
2017-12-04T07:46:30.377Z,11.67
2017-12-04T07:48:57.908Z,18.87
2017-12-04T07:51:25.419Z,15.17
2017-12-04T07:53:52.936Z,18.50
2017-12-04T07:56:20.451Z,12.27
2017-12-04T07:58:48.080Z,18.27
2017-12-04T08:01:15.597Z,20.03
2017-12-04T08:03:43.109Z,12.00
2017-12-04T08:06:10.651Z,14.77
2017-12-04T08:08:38.160Z,13.73
2017-12-04T08:11:05.690Z,15.57
2017-12-04T08:13:33.211Z,12.47
2017-12-04T08:16:00.721Z,13.57
2017-12-04T08:18:28.240Z,20.67
2017-12-04T08:20:55.756Z,17.13
2017-12-04T08:23:23.284Z,15.50
2017-12-04T08:25:50.797Z,10.73
2017-12-04T08:28:18.306Z,14.07
2017-12-04T08:30:45.826Z,10.77
2017-12-04T08:33:13.337Z,10.60
2017-12-04T08:35:40.850Z,10.67
2017-12-04T08:38:08.366Z,12.33
2017-12-04T08:40:35.887Z,10.17
2017-12-04T08:43:03.393Z,14.73
2017-12-04T08:45:30.909Z,15.57
2017-12-04T08:47:58.429Z,15.93
2017-12-04T08:50:25.949Z,12.93
2017-12-04T08:52:53.526Z,15.40
2017-12-04T08:55:21.043Z,15.67
2017-12-04T08:57:48.568Z,10.00
2017-12-04T09:00:16.086Z,14.30
2017-12-04T09:02:43.623Z,12.50
2017-12-04T09:05:11.142Z,14.30
2017-12-04T09:07:38.661Z,11.30
2017-12-04T09:10:06.201Z,9.27
2017-12-04T09:12:33.718Z,10.60
2017-12-04T09:15:01.235Z,19.07
2017-12-04T09:17:28.750Z,13.03
2017-12-04T09:19:56.270Z,11.33
2017-12-04T09:22:23.783Z,13.30
2017-12-04T09:24:51.313Z,11.03
2017-12-04T09:27:18.829Z,14.20
2017-12-04T09:29:46.346Z,10.17
2017-12-04T09:32:13.867Z,10.03
2017-12-04T09:34:41.389Z,10.87
2017-12-04T09:37:08.944Z,10.13
2017-12-04T09:39:36.457Z,16.37
2017-12-04T09:42:03.983Z,12.50
2017-12-04T09:44:31.514Z,14.87
2017-12-04T09:46:59.038Z,13.63
2017-12-04T09:49:26.582Z,10.10
2017-12-04T09:51:54.098Z,15.03
2017-12-04T09:54:21.634Z,16.10
2017-12-04T09:56:49.138Z,9.77
2017-12-04T09:59:16.653Z,8.80
2017-12-04T10:01:44.166Z,5.80
2017-12-04T10:04:11.721Z,4.67
2017-12-04T10:06:39.222Z,6.83
2017-12-04T10:09:06.726Z,4.37
2017-12-04T10:11:34.254Z,6.07
2017-12-04T10:14:01.772Z,4.00
2017-12-04T10:16:29.304Z,4.70
2017-12-04T10:18:56.819Z,4.50
2017-12-04T10:21:24.348Z,3.83
2017-12-04T10:23:51.964Z,7.30
2017-12-04T10:26:19.503Z,6.60
2017-12-04T10:28:47.017Z,6.10
2017-12-04T10:31:14.527Z,7.23
2017-12-04T10:33:42.037Z,8.23
2017-12-04T10:36:09.546Z,8.50
2017-12-04T10:38:37.063Z,7.43
2017-12-04T10:41:04.579Z,9.73
2017-12-04T10:43:32.163Z,8.83
2017-12-04T10:45:59.686Z,9.07
2017-12-04T10:48:27.195Z,9.77
2017-12-04T10:50:54.709Z,7.53
2017-12-04T10:53:22.220Z,7.43
2017-12-04T10:55:49.732Z,5.73
2017-12-04T10:58:17.240Z,9.97
2017-12-04T11:00:44.761Z,13.60
2017-12-04T11:03:12.269Z,8.73
2017-12-04T11:05:39.788Z,7.97
2017-12-04T11:08:07.298Z,9.07
2017-12-04T11:10:34.820Z,9.47
2017-12-04T11:13:02.336Z,12.33
2017-12-04T11:15:29.875Z,7.03
2017-12-04T11:17:57.397Z,11.80
2017-12-04T11:20:24.915Z,19.27
2017-12-04T11:22:52.432Z,14.03
2017-12-04T11:25:19.964Z,11.90
2017-12-04T11:27:47.477Z,13.37
2017-12-04T11:30:14.987Z,9.67
2017-12-04T11:32:42.489Z,8.40
2017-12-04T11:35:10.032Z,11.63
2017-12-04T11:37:38.137Z,14.37
2017-12-04T11:40:07.077Z,10.20
2017-12-04T11:42:35.974Z,11.87
2017-12-04T11:45:05.421Z,8.73
2017-12-04T11:47:33.550Z,19.23
2017-12-04T11:50:16.544Z,17.77
2017-12-04T11:52:44.211Z,25.10
2017-12-04T11:55:11.791Z,28.70
2017-12-04T11:57:41.226Z,17.93
2017-12-04T12:00:08.737Z,21.70
2017-12-04T12:02:36.254Z,47.40
2017-12-04T12:05:03.874Z,13.90
2017-12-04T12:07:37.635Z,17.80
2017-12-04T12:10:05.212Z,7.37
2017-12-04T12:12:32.852Z,8.33
2017-12-04T12:15:00.384Z,10.63
2017-12-04T12:17:27.977Z,9.40
2017-12-04T12:19:55.490Z,9.80
2017-12-04T12:22:23.052Z,10.43
2017-12-04T12:24:50.569Z,9.57
2017-12-04T12:27:18.105Z,12.43
2017-12-04T12:29:45.622Z,9.40
2017-12-04T12:32:13.200Z,8.80
2017-12-04T12:34:40.914Z,9.63
2017-12-04T12:37:08.455Z,12.43
2017-12-04T12:39:36.080Z,8.90
2017-12-04T12:42:03.638Z,9.83
2017-12-04T12:44:31.220Z,9.63
2017-12-04T13:04:38.569Z,9.70
2017-12-04T13:07:06.088Z,8.17
2017-12-04T13:09:33.617Z,8.50
2017-12-04T13:12:01.215Z,11.50
2017-12-04T13:14:28.771Z,9.03
2017-12-04T13:16:56.292Z,11.70
2017-12-04T13:19:23.807Z,8.07
2017-12-04T13:21:51.347Z,8.00
2017-12-04T13:24:18.932Z,13.57
2017-12-04T13:26:46.450Z,11.67
2017-12-04T13:32:29.750Z,10.23
2017-12-04T13:40:51.834Z,11.30
2017-12-04T13:43:20.244Z,10.00
2017-12-04T13:45:47.853Z,12.27
2017-12-04T13:48:15.513Z,9.40
2017-12-04T13:50:43.182Z,9.77
2017-12-04T13:53:10.872Z,11.43
2017-12-04T13:55:38.549Z,7.43
2017-12-04T13:58:06.127Z,7.97
2017-12-04T14:00:33.763Z,6.40
2017-12-04T14:03:01.347Z,8.93
2017-12-04T14:05:28.899Z,10.90
2017-12-04T14:07:56.525Z,10.17
2017-12-04T14:10:24.917Z,8.70
2017-12-04T14:12:52.479Z,7.43
2017-12-04T14:15:19.986Z,5.17
2017-12-04T14:17:47.538Z,7.27
2017-12-04T14:20:15.086Z,8.37
2017-12-04T14:22:42.658Z,5.90
2017-12-04T14:25:10.248Z,5.17
2017-12-04T14:27:37.821Z,8.33
2017-12-04T14:30:05.444Z,6.00
2017-12-04T14:32:33.039Z,8.83
2017-12-04T14:35:00.566Z,6.70
2017-12-04T14:37:28.080Z,5.47
2017-12-04T14:39:55.590Z,8.60
2017-12-04T14:42:23.124Z,8.13
2017-12-04T14:44:50.734Z,8.03
2017-12-04T14:47:18.327Z,9.70
2017-12-04T14:49:46.015Z,8.67
2017-12-04T14:52:13.703Z,10.50
2017-12-04T14:54:41.270Z,8.13
2017-12-04T14:57:08.833Z,6.93
2017-12-04T14:59:36.352Z,8.33
2017-12-04T15:02:03.866Z,10.77
2017-12-04T15:04:31.457Z,8.23
2017-12-04T15:06:59.086Z,8.63
2017-12-04T15:09:26.605Z,6.57
2017-12-04T15:11:54.113Z,7.43
2017-12-04T15:14:21.630Z,5.10
2017-12-04T15:16:49.162Z,10.10
2017-12-04T15:19:16.680Z,8.77
2017-12-04T15:21:44.202Z,7.60
2017-12-04T15:24:11.715Z,10.57
2017-12-04T15:26:39.226Z,11.57
2017-12-04T15:29:06.752Z,9.53
2017-12-04T15:31:34.497Z,9.87
2017-12-04T15:34:03.252Z,6.57
2017-12-04T15:36:30.768Z,10.20
2017-12-04T15:38:58.283Z,9.87
2017-12-04T15:41:25.806Z,7.03
2017-12-04T15:43:53.316Z,6.83
2017-12-04T15:46:20.837Z,7.37
2017-12-04T15:48:48.363Z,10.40
2017-12-04T15:51:15.888Z,7.00
2017-12-04T15:53:43.413Z,10.30
2017-12-04T15:56:10.941Z,12.43
2017-12-04T15:58:38.472Z,7.70
2017-12-04T16:01:05.988Z,10.47
2017-12-04T16:03:33.498Z,10.90
2017-12-04T16:06:01.006Z,7.80
2017-12-04T16:08:28.516Z,10.30
2017-12-04T16:10:56.089Z,9.97
2017-12-04T16:13:23.584Z,6.13
2017-12-04T16:15:51.101Z,10.63
2017-12-04T16:18:18.612Z,7.60
2017-12-04T16:20:46.132Z,7.53
2017-12-04T16:23:13.656Z,12.10
2017-12-04T16:25:41.173Z,10.23
2017-12-04T16:28:08.680Z,5.60
2017-12-04T16:30:36.204Z,8.33
2017-12-04T16:33:03.732Z,7.13
2017-12-04T16:35:31.245Z,7.80
2017-12-04T16:37:58.762Z,10.77
2017-12-04T16:40:26.275Z,9.77
2017-12-04T16:42:53.782Z,7.03
2017-12-04T16:45:21.326Z,11.07
2017-12-04T16:47:48.841Z,8.33
2017-12-04T16:50:16.383Z,8.00
2017-12-04T16:52:43.893Z,8.03
2017-12-04T16:55:11.403Z,10.83
2017-12-04T16:57:39.025Z,12.17
2017-12-04T17:00:06.542Z,8.30
2017-12-04T17:02:34.065Z,8.90
2017-12-04T17:05:01.588Z,10.03
2017-12-04T17:07:29.093Z,6.70
2017-12-04T17:09:56.620Z,7.07
2017-12-04T17:12:24.173Z,6.90
2017-12-04T17:14:51.746Z,6.53
2017-12-04T17:17:19.267Z,10.00
2017-12-04T17:19:46.781Z,7.63
2017-12-04T17:22:14.286Z,8.83
2017-12-04T17:24:41.868Z,5.73
2017-12-04T17:27:09.395Z,12.63
2017-12-04T17:29:36.904Z,6.00
2017-12-04T17:32:04.420Z,10.60
2017-12-04T17:34:31.943Z,9.33
2017-12-04T17:36:59.482Z,5.47
2017-12-04T17:39:26.997Z,10.43
2017-12-04T17:41:54.519Z,9.20
2017-12-04T17:44:22.149Z,9.37
2017-12-04T17:46:49.665Z,6.40
2017-12-04T17:49:17.267Z,11.20
2017-12-04T17:51:44.821Z,5.97
2017-12-04T17:54:12.330Z,9.50
2017-12-04T17:56:39.925Z,10.53
2017-12-04T17:59:07.439Z,6.53
2017-12-04T18:01:35.161Z,6.10
2017-12-04T18:04:02.814Z,7.30
2017-12-04T18:06:30.328Z,19.43
2017-12-04T18:08:57.836Z,8.47
2017-12-04T18:11:25.374Z,12.37
2017-12-04T18:13:52.890Z,8.43
2017-12-04T18:16:20.440Z,5.33
2017-12-04T18:18:47.958Z,15.23
2017-12-04T18:21:15.546Z,8.27
2017-12-04T18:23:43.106Z,10.67
2017-12-04T18:26:10.641Z,8.17
2017-12-04T18:28:38.151Z,8.07
2017-12-04T18:31:05.780Z,7.53
2017-12-04T18:33:33.317Z,11.83
2017-12-04T18:36:00.835Z,9.63
2017-12-04T18:38:28.353Z,12.27
2017-12-04T18:40:55.857Z,8.50
2017-12-04T18:43:23.510Z,10.20
2017-12-04T18:45:51.019Z,9.87
2017-12-04T18:48:18.536Z,8.70
2017-12-04T18:50:46.141Z,7.87
2017-12-04T18:53:13.666Z,8.20
2017-12-04T18:55:41.174Z,7.20
2017-12-04T18:58:08.746Z,10.13
2017-12-04T19:00:36.270Z,10.27
2017-12-04T19:03:03.787Z,11.83
2017-12-04T19:05:31.324Z,10.47
2017-12-04T19:07:58.939Z,14.13
2017-12-04T19:10:26.466Z,12.33
2017-12-04T19:12:53.983Z,15.10
2017-12-04T19:15:21.553Z,7.30
2017-12-04T19:17:49.072Z,12.23
2017-12-04T19:20:16.683Z,13.60
2017-12-04T19:22:44.233Z,9.90
2017-12-04T19:25:11.787Z,9.57
2017-12-04T19:27:39.334Z,10.13
2017-12-04T19:30:06.895Z,11.77
2017-12-04T19:32:34.469Z,9.07
2017-12-04T19:35:01.998Z,10.43
2017-12-04T19:37:29.561Z,12.87
2017-12-04T19:39:57.073Z,16.50
2017-12-04T19:42:25.857Z,10.53
2017-12-04T19:44:53.653Z,8.07
2017-12-04T19:47:21.224Z,9.70
2017-12-04T19:49:48.738Z,12.20
2017-12-04T19:52:16.250Z,9.10
2017-12-04T19:54:43.779Z,16.73
2017-12-04T19:57:11.519Z,13.20
2017-12-04T19:59:39.086Z,8.30
2017-12-04T20:02:06.600Z,11.20
2017-12-04T20:04:34.118Z,11.87
2017-12-04T20:07:01.638Z,10.47
2017-12-04T20:09:29.152Z,9.57
2017-12-04T20:11:56.778Z,12.88
2017-12-04T20:14:24.320Z,13.43
2017-12-04T20:16:51.837Z,8.57
2017-12-04T20:19:19.349Z,7.17
2017-12-04T20:21:46.909Z,12.50
2017-12-04T20:24:14.430Z,12.03
2017-12-04T20:26:41.942Z,13.70
2017-12-04T20:29:09.468Z,11.43
2017-12-04T20:31:36.990Z,12.00
2017-12-04T20:34:04.598Z,9.53
2017-12-04T20:36:32.286Z,13.03
2017-12-04T20:38:59.803Z,14.87
2017-12-04T20:41:27.492Z,17.03
2017-12-04T20:43:55.160Z,11.57
2017-12-04T20:46:22.685Z,11.67
2017-12-04T20:48:50.207Z,11.60
2017-12-04T20:51:17.735Z,11.23
2017-12-04T20:53:45.263Z,11.97
2017-12-04T20:56:12.857Z,10.70
2017-12-04T20:58:40.373Z,12.83
2017-12-04T21:01:07.880Z,16.87
2017-12-04T21:03:35.399Z,14.50
2017-12-04T21:06:02.925Z,12.63
2017-12-04T21:08:42.250Z,14.30
2017-12-04T21:11:21.740Z,9.17
2017-12-04T21:14:01.138Z,11.70
2017-12-04T21:16:51.325Z,13.23
2017-12-04T21:19:19.229Z,8.83
2017-12-04T21:21:46.753Z,16.20
2017-12-04T21:24:14.382Z,8.73
2017-12-04T21:26:41.897Z,13.03
2017-12-04T21:29:09.422Z,15.60
2017-12-04T21:31:37.062Z,11.47
2017-12-04T21:34:04.573Z,13.30
2017-12-04T21:36:32.337Z,15.40
2017-12-04T21:38:59.862Z,11.93
2017-12-04T21:41:27.502Z,15.23
2017-12-04T21:43:55.056Z,10.80
2017-12-04T21:46:22.618Z,10.57
2017-12-04T21:48:50.130Z,16.43
2017-12-04T21:51:17.655Z,8.17
2017-12-04T21:53:45.308Z,18.67
2017-12-04T21:56:12.866Z,14.17
2017-12-04T21:58:40.386Z,19.30
2017-12-04T22:01:07.976Z,14.83
2017-12-04T22:03:35.480Z,9.90
2017-12-04T22:06:02.990Z,11.17
2017-12-04T22:08:30.519Z,12.03
2017-12-04T22:10:58.034Z,16.87
2017-12-04T22:13:25.580Z,11.30
2017-12-04T22:15:53.156Z,11.60
2017-12-04T22:18:20.642Z,12.80
2017-12-04T22:20:48.262Z,17.30
2017-12-04T22:23:15.935Z,15.10
2017-12-04T22:25:43.465Z,11.60
2017-12-04T22:28:11.056Z,19.30
2017-12-04T22:30:38.762Z,15.03
2017-12-04T22:33:06.389Z,18.40
2017-12-04T22:35:33.897Z,11.77
2017-12-04T22:38:01.491Z,17.00
2017-12-04T22:40:29.016Z,14.13
2017-12-04T22:42:56.614Z,14.97
2017-12-04T22:45:24.138Z,12.13
2017-12-04T22:47:51.660Z,11.43
2017-12-04T22:50:19.408Z,14.93
2017-12-04T22:52:46.935Z,20.67
2017-12-04T22:55:14.513Z,15.27
2017-12-04T22:57:42.048Z,14.03
2017-12-04T23:00:09.737Z,12.57
2017-12-04T23:02:37.262Z,10.67
2017-12-04T23:05:04.876Z,13.67
2017-12-04T23:07:32.386Z,9.20
2017-12-04T23:09:59.897Z,12.67
2017-12-04T23:12:27.457Z,9.93
2017-12-04T23:14:54.964Z,6.70
2017-12-04T23:17:22.478Z,19.67
2017-12-04T23:19:50.004Z,10.80
2017-12-04T23:22:17.566Z,11.53
2017-12-04T23:24:45.934Z,13.87
2017-12-04T23:27:13.442Z,13.73
2017-12-04T23:29:40.976Z,13.77
2017-12-04T23:32:08.482Z,11.00
2017-12-04T23:34:36.081Z,12.00
2017-12-04T23:37:03.650Z,15.30
2017-12-04T23:39:31.161Z,11.60
2017-12-04T23:41:58.686Z,17.40
2017-12-04T23:44:26.205Z,13.53
2017-12-04T23:46:53.742Z,15.10
2017-12-04T23:49:21.275Z,14.57
2017-12-04T23:51:48.806Z,13.10
2017-12-04T23:54:21.304Z,9.77
2017-12-04T23:56:48.831Z,15.33
2017-12-04T23:59:16.348Z,11.53
